sensor_id;sensor_type;location;lat;lon;timestamp;temperature;humidity
69006;SHT31;56061;51.748;19.620;2022-08-21T00:00:44;20.10;86.21
69006;SHT31;56061;51.748;19.620;2022-08-21T00:03:11;20.07;86.39
69006;SHT31;56061;51.748;19.620;2022-08-21T00:05:41;20.04;86.43
69006;SHT31;56061;51.748;19.620;2022-08-21T00:08:16;20.03;86.58
69006;SHT31;56061;51.748;19.620;2022-08-21T00:10:46;20.02;86.78
69006;SHT31;56061;51.748;19.620;2022-08-21T00:13:16;20.01;86.78
69006;SHT31;56061;51.748;19.620;2022-08-21T00:15:44;20.00;86.78
69006;SHT31;56061;51.748;19.620;2022-08-21T00:18:11;20.02;86.70
69006;SHT31;56061;51.748;19.620;2022-08-21T00:20:38;20.01;86.68
69006;SHT31;56061;51.748;19.620;2022-08-21T00:23:07;20.01;86.69
69006;SHT31;56061;51.748;19.620;2022-08-21T00:25:34;20.00;86.69
69006;SHT31;56061;51.748;19.620;2022-08-21T00:28:01;20.01;86.65
69006;SHT31;56061;51.748;19.620;2022-08-21T00:30:28;20.00;86.67
69006;SHT31;56061;51.748;19.620;2022-08-21T00:32:56;19.98;86.60
69006;SHT31;56061;51.748;19.620;2022-08-21T00:35:25;19.97;86.56
69006;SHT31;56061;51.748;19.620;2022-08-21T00:37:55;19.96;86.60
69006;SHT31;56061;51.748;19.620;2022-08-21T00:40:25;19.95;86.50
69006;SHT31;56061;51.748;19.620;2022-08-21T00:43:01;19.95;86.45
69006;SHT31;56061;51.748;19.620;2022-08-21T00:45:30;19.95;86.38
69006;SHT31;56061;51.748;19.620;2022-08-21T00:47:58;19.95;86.38
69006;SHT31;56061;51.748;19.620;2022-08-21T00:50:25;19.96;86.37
69006;SHT31;56061;51.748;19.620;2022-08-21T00:52:58;19.97;86.39
69006;SHT31;56061;51.748;19.620;2022-08-21T00:55:28;19.98;86.43
69006;SHT31;56061;51.748;19.620;2022-08-21T00:57:58;20.00;86.45
69006;SHT31;56061;51.748;19.620;2022-08-21T01:00:30;20.01;86.47
69006;SHT31;56061;51.748;19.620;2022-08-21T01:03:00;20.02;86.52
69006;SHT31;56061;51.748;19.620;2022-08-21T01:05:34;20.02;86.49
69006;SHT31;56061;51.748;19.620;2022-08-21T01:08:01;20.03;86.49
69006;SHT31;56061;51.748;19.620;2022-08-21T01:10:29;20.04;86.50
69006;SHT31;56061;51.748;19.620;2022-08-21T01:12:57;20.05;86.49
69006;SHT31;56061;51.748;19.620;2022-08-21T01:15:26;20.07;86.48
69006;SHT31;56061;51.748;19.620;2022-08-21T01:17:58;20.06;86.51
69006;SHT31;56061;51.748;19.620;2022-08-21T01:20:26;20.06;86.55
69006;SHT31;56061;51.748;19.620;2022-08-21T01:22:58;20.07;86.53
69006;SHT31;56061;51.748;19.620;2022-08-21T01:25:26;20.08;86.62
69006;SHT31;56061;51.748;19.620;2022-08-21T01:27:52;20.08;86.54
69006;SHT31;56061;51.748;19.620;2022-08-21T01:30:20;20.11;86.54
69006;SHT31;56061;51.748;19.620;2022-08-21T01:32:51;20.12;86.52
69006;SHT31;56061;51.748;19.620;2022-08-21T01:35:20;20.13;86.48
69006;SHT31;56061;51.748;19.620;2022-08-21T01:37:47;20.15;86.50
69006;SHT31;56061;51.748;19.620;2022-08-21T01:40:15;20.17;86.49
69006;SHT31;56061;51.748;19.620;2022-08-21T01:42:43;20.18;86.49
69006;SHT31;56061;51.748;19.620;2022-08-21T01:45:11;20.17;86.54
69006;SHT31;56061;51.748;19.620;2022-08-21T01:47:40;20.17;86.55
69006;SHT31;56061;51.748;19.620;2022-08-21T01:50:09;20.17;86.57
69006;SHT31;56061;51.748;19.620;2022-08-21T01:52:40;20.17;86.57
69006;SHT31;56061;51.748;19.620;2022-08-21T01:55:12;20.17;86.57
69006;SHT31;56061;51.748;19.620;2022-08-21T01:57:40;20.18;86.57
69006;SHT31;56061;51.748;19.620;2022-08-21T02:00:09;20.18;86.57
69006;SHT31;56061;51.748;19.620;2022-08-21T02:02:40;20.18;86.63
69006;SHT31;56061;51.748;19.620;2022-08-21T02:05:08;20.19;86.68
69006;SHT31;56061;51.748;19.620;2022-08-21T02:07:40;20.21;86.77
69006;SHT31;56061;51.748;19.620;2022-08-21T02:12:38;20.25;86.73
69006;SHT31;56061;51.748;19.620;2022-08-21T02:15:05;20.26;86.68
69006;SHT31;56061;51.748;19.620;2022-08-21T02:17:38;20.30;86.67
69006;SHT31;56061;51.748;19.620;2022-08-21T02:20:16;20.31;86.59
69006;SHT31;56061;51.748;19.620;2022-08-21T02:22:56;20.30;86.61
69006;SHT31;56061;51.748;19.620;2022-08-21T02:25:24;20.29;86.59
69006;SHT31;56061;51.748;19.620;2022-08-21T02:27:54;20.27;86.60
69006;SHT31;56061;51.748;19.620;2022-08-21T02:30:23;20.26;86.60
69006;SHT31;56061;51.748;19.620;2022-08-21T02:32:55;20.23;86.64
69006;SHT31;56061;51.748;19.620;2022-08-21T02:35:22;20.22;86.69
69006;SHT31;56061;51.748;19.620;2022-08-21T02:37:52;20.22;86.75
69006;SHT31;56061;51.748;19.620;2022-08-21T02:40:24;20.21;86.76
69006;SHT31;56061;51.748;19.620;2022-08-21T02:42:59;20.21;86.77
69006;SHT31;56061;51.748;19.620;2022-08-21T02:45:28;20.19;86.81
69006;SHT31;56061;51.748;19.620;2022-08-21T02:48:00;20.17;86.83
69006;SHT31;56061;51.748;19.620;2022-08-21T02:50:35;20.16;86.82
69006;SHT31;56061;51.748;19.620;2022-08-21T02:53:06;20.16;86.88
69006;SHT31;56061;51.748;19.620;2022-08-21T02:55:35;20.17;86.83
69006;SHT31;56061;51.748;19.620;2022-08-21T02:58:04;20.15;86.78
69006;SHT31;56061;51.748;19.620;2022-08-21T03:00:34;20.15;86.81
69006;SHT31;56061;51.748;19.620;2022-08-21T03:03:03;20.14;86.80
69006;SHT31;56061;51.748;19.620;2022-08-21T03:05:32;20.13;86.79
69006;SHT31;56061;51.748;19.620;2022-08-21T03:08:02;20.12;86.80
69006;SHT31;56061;51.748;19.620;2022-08-21T03:10:36;20.11;86.83
69006;SHT31;56061;51.748;19.620;2022-08-21T03:13:10;20.09;86.80
69006;SHT31;56061;51.748;19.620;2022-08-21T03:15:37;20.09;86.82
69006;SHT31;56061;51.748;19.620;2022-08-21T03:18:05;20.07;86.81
69006;SHT31;56061;51.748;19.620;2022-08-21T03:20:34;20.04;86.85
69006;SHT31;56061;51.748;19.620;2022-08-21T03:23:03;20.01;86.96
69006;SHT31;56061;51.748;19.620;2022-08-21T03:25:42;20.00;86.97
69006;SHT31;56061;51.748;19.620;2022-08-21T03:28:10;20.01;87.06
69006;SHT31;56061;51.748;19.620;2022-08-21T03:30:41;20.00;87.12
69006;SHT31;56061;51.748;19.620;2022-08-21T03:33:12;20.00;87.24
69006;SHT31;56061;51.748;19.620;2022-08-21T03:35:41;19.99;87.21
69006;SHT31;56061;51.748;19.620;2022-08-21T03:38:10;19.99;87.18
69006;SHT31;56061;51.748;19.620;2022-08-21T03:40:39;19.98;87.17
69006;SHT31;56061;51.748;19.620;2022-08-21T03:43:08;19.98;87.12
69006;SHT31;56061;51.748;19.620;2022-08-21T03:45:35;20.00;87.13
69006;SHT31;56061;51.748;19.620;2022-08-21T03:48:03;20.04;87.05
69006;SHT31;56061;51.748;19.620;2022-08-21T03:50:34;20.06;86.94
69006;SHT31;56061;51.748;19.620;2022-08-21T03:53:06;20.08;86.92
69006;SHT31;56061;51.748;19.620;2022-08-21T03:55:42;20.10;86.83
69006;SHT31;56061;51.748;19.620;2022-08-21T03:58:10;20.11;86.77
69006;SHT31;56061;51.748;19.620;2022-08-21T04:00:43;20.10;86.61
69006;SHT31;56061;51.748;19.620;2022-08-21T04:03:15;20.08;86.42
69006;SHT31;56061;51.748;19.620;2022-08-21T04:05:43;20.07;86.29
69006;SHT31;56061;51.748;19.620;2022-08-21T04:08:12;20.08;86.06
69006;SHT31;56061;51.748;19.620;2022-08-21T04:10:41;20.06;86.01
69006;SHT31;56061;51.748;19.620;2022-08-21T04:13:09;20.09;86.00
69006;SHT31;56061;51.748;19.620;2022-08-21T04:15:36;20.10;85.78
69006;SHT31;56061;51.748;19.620;2022-08-21T04:18:04;20.11;85.58
69006;SHT31;56061;51.748;19.620;2022-08-21T04:20:31;20.12;85.55
69006;SHT31;56061;51.748;19.620;2022-08-21T04:22:59;20.13;85.46
69006;SHT31;56061;51.748;19.620;2022-08-21T04:25:27;20.15;85.35
69006;SHT31;56061;51.748;19.620;2022-08-21T04:27:55;20.20;85.27
69006;SHT31;56061;51.748;19.620;2022-08-21T04:30:22;20.24;85.10
69006;SHT31;56061;51.748;19.620;2022-08-21T04:32:54;20.26;84.84
69006;SHT31;56061;51.748;19.620;2022-08-21T04:35:25;20.30;84.88
69006;SHT31;56061;51.748;19.620;2022-08-21T04:37:53;20.34;84.80
69006;SHT31;56061;51.748;19.620;2022-08-21T04:40:21;20.39;84.59
69006;SHT31;56061;51.748;19.620;2022-08-21T04:42:52;20.40;84.33
69006;SHT31;56061;51.748;19.620;2022-08-21T04:45:29;20.41;84.26
69006;SHT31;56061;51.748;19.620;2022-08-21T04:48:01;20.45;84.12
69006;SHT31;56061;51.748;19.620;2022-08-21T04:50:47;20.48;84.05
69006;SHT31;56061;51.748;19.620;2022-08-21T04:53:30;20.52;83.87
69006;SHT31;56061;51.748;19.620;2022-08-21T04:56:05;20.58;83.78
69006;SHT31;56061;51.748;19.620;2022-08-21T04:58:39;20.62;83.57
69006;SHT31;56061;51.748;19.620;2022-08-21T05:01:11;20.70;83.66
69006;SHT31;56061;51.748;19.620;2022-08-21T05:03:45;20.79;83.64
69006;SHT31;56061;51.748;19.620;2022-08-21T05:06:16;20.87;83.67
69006;SHT31;56061;51.748;19.620;2022-08-21T05:08:45;20.95;83.61
69006;SHT31;56061;51.748;19.620;2022-08-21T05:11:26;21.03;83.48
69006;SHT31;56061;51.748;19.620;2022-08-21T05:13:56;21.11;83.48
69006;SHT31;56061;51.748;19.620;2022-08-21T05:16:23;21.17;83.32
69006;SHT31;56061;51.748;19.620;2022-08-21T05:19:02;21.21;82.93
69006;SHT31;56061;51.748;19.620;2022-08-21T05:21:30;21.27;82.93
69006;SHT31;56061;51.748;19.620;2022-08-21T05:23:58;21.30;82.65
69006;SHT31;56061;51.748;19.620;2022-08-21T05:26:25;21.36;82.79
69006;SHT31;56061;51.748;19.620;2022-08-21T05:28:52;21.42;82.81
69006;SHT31;56061;51.748;19.620;2022-08-21T05:31:18;21.48;82.12
69006;SHT31;56061;51.748;19.620;2022-08-21T05:33:45;21.52;81.87
69006;SHT31;56061;51.748;19.620;2022-08-21T05:36:12;21.60;81.97
69006;SHT31;56061;51.748;19.620;2022-08-21T05:38:38;21.68;81.58
69006;SHT31;56061;51.748;19.620;2022-08-21T05:41:05;21.74;81.29
69006;SHT31;56061;51.748;19.620;2022-08-21T05:43:33;21.78;81.27
69006;SHT31;56061;51.748;19.620;2022-08-21T05:46:02;21.87;81.30
69006;SHT31;56061;51.748;19.620;2022-08-21T05:48:33;21.97;81.11
69006;SHT31;56061;51.748;19.620;2022-08-21T05:51:09;22.06;80.74
69006;SHT31;56061;51.748;19.620;2022-08-21T05:53:39;22.13;80.61
69006;SHT31;56061;51.748;19.620;2022-08-21T05:56:08;22.17;80.37
69006;SHT31;56061;51.748;19.620;2022-08-21T05:58:36;22.21;80.03
69006;SHT31;56061;51.748;19.620;2022-08-21T06:01:03;22.24;79.55
69006;SHT31;56061;51.748;19.620;2022-08-21T06:03:33;22.30;79.48
69006;SHT31;56061;51.748;19.620;2022-08-21T06:06:03;22.38;79.40
69006;SHT31;56061;51.748;19.620;2022-08-21T06:08:30;22.48;79.36
69006;SHT31;56061;51.748;19.620;2022-08-21T06:10:58;22.62;78.98
69006;SHT31;56061;51.748;19.620;2022-08-21T06:13:26;22.74;78.72
69006;SHT31;56061;51.748;19.620;2022-08-21T06:16:01;22.84;78.32
69006;SHT31;56061;51.748;19.620;2022-08-21T06:18:46;22.92;78.16
69006;SHT31;56061;51.748;19.620;2022-08-21T06:21:12;23.01;77.97
69006;SHT31;56061;51.748;19.620;2022-08-21T06:23:40;23.05;77.82
69006;SHT31;56061;51.748;19.620;2022-08-21T06:26:09;23.12;77.83
69006;SHT31;56061;51.748;19.620;2022-08-21T06:28:38;23.19;77.23
69006;SHT31;56061;51.748;19.620;2022-08-21T06:31:14;23.25;76.77
69006;SHT31;56061;51.748;19.620;2022-08-21T06:33:49;23.31;76.72
69006;SHT31;56061;51.748;19.620;2022-08-21T06:36:16;23.36;76.36
69006;SHT31;56061;51.748;19.620;2022-08-21T06:38:43;23.40;75.84
69006;SHT31;56061;51.748;19.620;2022-08-21T06:41:17;23.44;75.81
69006;SHT31;56061;51.748;19.620;2022-08-21T06:43:51;23.49;75.75
69006;SHT31;56061;51.748;19.620;2022-08-21T06:46:18;23.53;75.29
69006;SHT31;56061;51.748;19.620;2022-08-21T06:48:45;23.57;74.89
69006;SHT31;56061;51.748;19.620;2022-08-21T06:51:12;23.61;74.51
69006;SHT31;56061;51.748;19.620;2022-08-21T06:53:42;23.65;74.42
69006;SHT31;56061;51.748;19.620;2022-08-21T06:56:12;23.70;74.31
69006;SHT31;56061;51.748;19.620;2022-08-21T06:58:39;23.77;74.43
69006;SHT31;56061;51.748;19.620;2022-08-21T07:01:06;23.82;74.14
69006;SHT31;56061;51.748;19.620;2022-08-21T07:03:37;23.86;73.79
69006;SHT31;56061;51.748;19.620;2022-08-21T07:06:07;23.90;73.93
69006;SHT31;56061;51.748;19.620;2022-08-21T07:08:37;23.97;73.85
69006;SHT31;56061;51.748;19.620;2022-08-21T07:11:07;24.07;73.85
69006;SHT31;56061;51.748;19.620;2022-08-21T07:13:46;24.16;73.05
69006;SHT31;56061;51.748;19.620;2022-08-21T07:16:13;24.23;73.01
69006;SHT31;56061;51.748;19.620;2022-08-21T07:18:40;24.32;72.95
69006;SHT31;56061;51.748;19.620;2022-08-21T07:21:07;24.42;72.60
69006;SHT31;56061;51.748;19.620;2022-08-21T07:23:39;24.51;72.72
69006;SHT31;56061;51.748;19.620;2022-08-21T07:26:11;24.62;72.17
69006;SHT31;56061;51.748;19.620;2022-08-21T07:28:39;24.69;71.82
69006;SHT31;56061;51.748;19.620;2022-08-21T07:31:06;24.77;71.58
69006;SHT31;56061;51.748;19.620;2022-08-21T07:33:35;24.85;71.18
69006;SHT31;56061;51.748;19.620;2022-08-21T07:36:02;24.94;70.87
69006;SHT31;56061;51.748;19.620;2022-08-21T07:38:29;25.04;70.80
69006;SHT31;56061;51.748;19.620;2022-08-21T07:40:56;25.11;70.79
69006;SHT31;56061;51.748;19.620;2022-08-21T07:43:27;25.22;70.85
69006;SHT31;56061;51.748;19.620;2022-08-21T07:45:55;25.28;70.40
69006;SHT31;56061;51.748;19.620;2022-08-21T07:48:22;25.34;70.17
69006;SHT31;56061;51.748;19.620;2022-08-21T07:50:49;25.40;70.29
69006;SHT31;56061;51.748;19.620;2022-08-21T07:53:16;25.51;70.88
69006;SHT31;56061;51.748;19.620;2022-08-21T07:55:43;25.61;70.15
69006;SHT31;56061;51.748;19.620;2022-08-21T07:58:09;25.69;70.27
69006;SHT31;56061;51.748;19.620;2022-08-21T08:00:36;25.75;69.33
69006;SHT31;56061;51.748;19.620;2022-08-21T08:03:03;25.80;69.12
69006;SHT31;56061;51.748;19.620;2022-08-21T08:05:30;25.89;68.92
69006;SHT31;56061;51.748;19.620;2022-08-21T08:07:58;25.90;68.28
69006;SHT31;56061;51.748;19.620;2022-08-21T08:10:25;25.95;68.70
69006;SHT31;56061;51.748;19.620;2022-08-21T08:12:52;26.05;68.21
69006;SHT31;56061;51.748;19.620;2022-08-21T08:15:22;26.10;67.49
69006;SHT31;56061;51.748;19.620;2022-08-21T08:17:52;26.21;68.05
69006;SHT31;56061;51.748;19.620;2022-08-21T08:20:21;26.30;68.15
69006;SHT31;56061;51.748;19.620;2022-08-21T08:22:49;26.32;67.18
69006;SHT31;56061;51.748;19.620;2022-08-21T08:25:17;26.30;66.92
69006;SHT31;56061;51.748;19.620;2022-08-21T08:27:46;26.33;67.52
69006;SHT31;56061;51.748;19.620;2022-08-21T08:30:14;26.48;68.17
69006;SHT31;56061;51.748;19.620;2022-08-21T08:32:44;26.62;67.63
69006;SHT31;56061;51.748;19.620;2022-08-21T08:35:12;26.71;67.36
69006;SHT31;56061;51.748;19.620;2022-08-21T08:37:40;26.80;67.69
69006;SHT31;56061;51.748;19.620;2022-08-21T08:40:18;26.91;67.41
69006;SHT31;56061;51.748;19.620;2022-08-21T08:42:59;27.02;66.83
69006;SHT31;56061;51.748;19.620;2022-08-21T08:45:26;27.19;66.02
69006;SHT31;56061;51.748;19.620;2022-08-21T08:48:02;27.21;64.79
69006;SHT31;56061;51.748;19.620;2022-08-21T08:50:55;27.20;64.64
69006;SHT31;56061;51.748;19.620;2022-08-21T08:53:28;27.25;64.19
69006;SHT31;56061;51.748;19.620;2022-08-21T08:56:00;27.19;63.97
69006;SHT31;56061;51.748;19.620;2022-08-21T08:58:31;27.15;64.42
69006;SHT31;56061;51.748;19.620;2022-08-21T09:01:06;27.17;64.81
69006;SHT31;56061;51.748;19.620;2022-08-21T09:03:43;27.20;65.04
69006;SHT31;56061;51.748;19.620;2022-08-21T09:06:19;27.23;64.81
69006;SHT31;56061;51.748;19.620;2022-08-21T09:11:52;27.20;64.04
69006;SHT31;56061;51.748;19.620;2022-08-21T09:14:37;27.21;64.99
69006;SHT31;56061;51.748;19.620;2022-08-21T09:20:37;27.21;62.65
69006;SHT31;56061;51.748;19.620;2022-08-21T09:23:23;27.11;62.98
69006;SHT31;56061;51.748;19.620;2022-08-21T09:26:18;27.12;63.07
69006;SHT31;56061;51.748;19.620;2022-08-21T09:28:54;27.13;63.11
69006;SHT31;56061;51.748;19.620;2022-08-21T09:31:34;27.19;63.40
69006;SHT31;56061;51.748;19.620;2022-08-21T09:34:05;27.24;63.39
69006;SHT31;56061;51.748;19.620;2022-08-21T09:36:43;27.29;63.46
69006;SHT31;56061;51.748;19.620;2022-08-21T09:39:24;27.35;63.36
69006;SHT31;56061;51.748;19.620;2022-08-21T09:42:06;27.36;62.53
69006;SHT31;56061;51.748;19.620;2022-08-21T09:44:36;27.38;62.71
69006;SHT31;56061;51.748;19.620;2022-08-21T09:47:09;27.43;62.56
69006;SHT31;56061;51.748;19.620;2022-08-21T09:49:41;27.45;62.26
69006;SHT31;56061;51.748;19.620;2022-08-21T09:52:19;27.48;62.44
69006;SHT31;56061;51.748;19.620;2022-08-21T09:54:51;27.59;61.96
69006;SHT31;56061;51.748;19.620;2022-08-21T09:57:28;27.60;61.30
69006;SHT31;56061;51.748;19.620;2022-08-21T10:00:18;27.55;60.90
69006;SHT31;56061;51.748;19.620;2022-08-21T10:03:08;27.53;61.10
69006;SHT31;56061;51.748;19.620;2022-08-21T10:05:52;27.56;60.82
69006;SHT31;56061;51.748;19.620;2022-08-21T10:08:35;27.66;61.59
69006;SHT31;56061;51.748;19.620;2022-08-21T10:11:15;27.82;60.88
69006;SHT31;56061;51.748;19.620;2022-08-21T10:14:06;27.89;58.80
69006;SHT31;56061;51.748;19.620;2022-08-21T10:20:33;27.92;59.10
69006;SHT31;56061;51.748;19.620;2022-08-21T10:26:10;28.05;58.71
69006;SHT31;56061;51.748;19.620;2022-08-21T10:37:44;28.41;57.73
69006;SHT31;56061;51.748;19.620;2022-08-21T10:40:25;28.43;57.64
69006;SHT31;56061;51.748;19.620;2022-08-21T10:49:03;28.57;56.17
69006;SHT31;56061;51.748;19.620;2022-08-21T10:58:15;28.92;55.45
69006;SHT31;56061;51.748;19.620;2022-08-21T11:00:55;29.10;56.13
69006;SHT31;56061;51.748;19.620;2022-08-21T11:03:41;29.14;54.35
69006;SHT31;56061;51.748;19.620;2022-08-21T11:06:23;29.18;54.91
69006;SHT31;56061;51.748;19.620;2022-08-21T11:08:55;29.13;54.68
69006;SHT31;56061;51.748;19.620;2022-08-21T11:11:44;29.11;53.99
69006;SHT31;56061;51.748;19.620;2022-08-21T11:17:53;28.92;54.97
69006;SHT31;56061;51.748;19.620;2022-08-21T11:20:33;28.82;55.71
69006;SHT31;56061;51.748;19.620;2022-08-21T11:23:28;28.77;55.74
69006;SHT31;56061;51.748;19.620;2022-08-21T11:26:17;28.74;55.07
69006;SHT31;56061;51.748;19.620;2022-08-21T11:29:00;28.66;55.39
69006;SHT31;56061;51.748;19.620;2022-08-21T11:31:57;28.63;55.48
69006;SHT31;56061;51.748;19.620;2022-08-21T11:52:16;29.07;56.49
69006;SHT31;56061;51.748;19.620;2022-08-21T11:55:03;28.94;58.30
69006;SHT31;56061;51.748;19.620;2022-08-21T11:58:11;28.71;59.69
69006;SHT31;56061;51.748;19.620;2022-08-21T12:00:43;28.38;60.36
69006;SHT31;56061;51.748;19.620;2022-08-21T12:06:12;27.82;62.05
69006;SHT31;56061;51.748;19.620;2022-08-21T12:08:56;27.58;62.60
69006;SHT31;56061;51.748;19.620;2022-08-21T12:11:47;27.47;62.87
69006;SHT31;56061;51.748;19.620;2022-08-21T12:14:34;27.43;63.30
69006;SHT31;56061;51.748;19.620;2022-08-21T12:17:06;27.40;63.23
69006;SHT31;56061;51.748;19.620;2022-08-21T12:19:56;27.38;63.64
69006;SHT31;56061;51.748;19.620;2022-08-21T12:22:49;27.41;63.41
69006;SHT31;56061;51.748;19.620;2022-08-21T12:25:21;27.42;63.73
69006;SHT31;56061;51.748;19.620;2022-08-21T12:28:01;27.48;64.15
69006;SHT31;56061;51.748;19.620;2022-08-21T12:30:37;27.59;63.68
69006;SHT31;56061;51.748;19.620;2022-08-21T12:36:11;27.64;62.67
69006;SHT31;56061;51.748;19.620;2022-08-21T12:39:00;27.65;63.11
69006;SHT31;56061;51.748;19.620;2022-08-21T12:41:56;27.68;62.49
69006;SHT31;56061;51.748;19.620;2022-08-21T12:45:11;27.75;62.69
69006;SHT31;56061;51.748;19.620;2022-08-21T12:47:27;27.80;62.60
69006;SHT31;56061;51.748;19.620;2022-08-21T12:50:05;27.80;62.64
69006;SHT31;56061;51.748;19.620;2022-08-21T12:52:51;27.82;62.44
69006;SHT31;56061;51.748;19.620;2022-08-21T12:55:29;27.78;62.07
69006;SHT31;56061;51.748;19.620;2022-08-21T12:57:59;27.75;62.45
69006;SHT31;56061;51.748;19.620;2022-08-21T13:00:27;27.77;61.94
69006;SHT31;56061;51.748;19.620;2022-08-21T13:02:55;27.79;61.73
69006;SHT31;56061;51.748;19.620;2022-08-21T13:05:28;27.80;61.39
69006;SHT31;56061;51.748;19.620;2022-08-21T13:08:05;27.81;61.49
69006;SHT31;56061;51.748;19.620;2022-08-21T13:10:35;27.82;61.65
69006;SHT31;56061;51.748;19.620;2022-08-21T13:13:04;27.83;61.52
69006;SHT31;56061;51.748;19.620;2022-08-21T13:15:39;27.83;61.44
69006;SHT31;56061;51.748;19.620;2022-08-21T13:18:23;27.87;61.72
69006;SHT31;56061;51.748;19.620;2022-08-21T13:21:11;27.95;61.59
69006;SHT31;56061;51.748;19.620;2022-08-21T13:23:40;28.01;61.92
69006;SHT31;56061;51.748;19.620;2022-08-21T13:26:17;28.03;61.37
69006;SHT31;56061;51.748;19.620;2022-08-21T13:28:47;27.98;60.87
69006;SHT31;56061;51.748;19.620;2022-08-21T13:31:18;27.95;60.95
69006;SHT31;56061;51.748;19.620;2022-08-21T13:33:53;27.93;61.02
69006;SHT31;56061;51.748;19.620;2022-08-21T13:36:24;27.91;61.28
69006;SHT31;56061;51.748;19.620;2022-08-21T13:38:55;27.84;61.19
69006;SHT31;56061;51.748;19.620;2022-08-21T13:41:29;27.80;61.10
69006;SHT31;56061;51.748;19.620;2022-08-21T13:44:05;27.73;61.61
69006;SHT31;56061;51.748;19.620;2022-08-21T13:46:46;27.76;61.82
69006;SHT31;56061;51.748;19.620;2022-08-21T13:49:16;27.81;61.45
69006;SHT31;56061;51.748;19.620;2022-08-21T13:51:46;27.84;61.80
69006;SHT31;56061;51.748;19.620;2022-08-21T13:56:59;27.85;61.23
69006;SHT31;56061;51.748;19.620;2022-08-21T13:59:28;27.88;61.19
69006;SHT31;56061;51.748;19.620;2022-08-21T14:01:59;27.92;61.45
69006;SHT31;56061;51.748;19.620;2022-08-21T14:04:50;27.93;61.83
69006;SHT31;56061;51.748;19.620;2022-08-21T14:07:46;27.99;61.81
69006;SHT31;56061;51.748;19.620;2022-08-21T14:10:20;28.10;61.84
69006;SHT31;56061;51.748;19.620;2022-08-21T14:12:50;28.17;60.73
69006;SHT31;56061;51.748;19.620;2022-08-21T14:15:26;28.27;60.29
69006;SHT31;56061;51.748;19.620;2022-08-21T14:18:16;28.32;60.38
69006;SHT31;56061;51.748;19.620;2022-08-21T14:20:45;28.42;60.12
69006;SHT31;56061;51.748;19.620;2022-08-21T14:23:23;28.46;59.05
69006;SHT31;56061;51.748;19.620;2022-08-21T14:25:51;28.49;58.87
69006;SHT31;56061;51.748;19.620;2022-08-21T14:30:55;28.37;58.80
69006;SHT31;56061;51.748;19.620;2022-08-21T14:33:25;28.35;59.21
69006;SHT31;56061;51.748;19.620;2022-08-21T14:35:55;28.36;59.40
69006;SHT31;56061;51.748;19.620;2022-08-21T14:38:25;28.40;59.35
69006;SHT31;56061;51.748;19.620;2022-08-21T14:40:55;28.40;59.55
69006;SHT31;56061;51.748;19.620;2022-08-21T14:43:26;28.42;59.16
69006;SHT31;56061;51.748;19.620;2022-08-21T14:45:54;28.43;58.58
69006;SHT31;56061;51.748;19.620;2022-08-21T14:48:22;28.39;58.24
69006;SHT31;56061;51.748;19.620;2022-08-21T14:50:48;28.35;58.87
69006;SHT31;56061;51.748;19.620;2022-08-21T14:53:15;28.38;59.09
69006;SHT31;56061;51.748;19.620;2022-08-21T14:55:42;28.36;58.52
69006;SHT31;56061;51.748;19.620;2022-08-21T14:58:27;28.30;58.07
69006;SHT31;56061;51.748;19.620;2022-08-21T15:00:54;28.24;58.57
69006;SHT31;56061;51.748;19.620;2022-08-21T15:03:22;28.20;59.13
69006;SHT31;56061;51.748;19.620;2022-08-21T15:05:49;28.24;59.79
69006;SHT31;56061;51.748;19.620;2022-08-21T15:08:17;28.27;59.22
69006;SHT31;56061;51.748;19.620;2022-08-21T15:10:44;28.27;59.09
69006;SHT31;56061;51.748;19.620;2022-08-21T15:13:32;28.29;59.47
69006;SHT31;56061;51.748;19.620;2022-08-21T15:15:59;28.34;60.04
69006;SHT31;56061;51.748;19.620;2022-08-21T15:18:27;28.31;59.97
69006;SHT31;56061;51.748;19.620;2022-08-21T15:20:55;28.19;59.87
69006;SHT31;56061;51.748;19.620;2022-08-21T15:23:23;28.09;60.56
69006;SHT31;56061;51.748;19.620;2022-08-21T15:25:50;28.04;61.23
69006;SHT31;56061;51.748;19.620;2022-08-21T15:28:19;28.01;60.58
69006;SHT31;56061;51.748;19.620;2022-08-21T15:30:47;27.93;59.90
69006;SHT31;56061;51.748;19.620;2022-08-21T15:33:14;27.81;59.79
69006;SHT31;56061;51.748;19.620;2022-08-21T15:35:41;27.70;60.02
69006;SHT31;56061;51.748;19.620;2022-08-21T15:38:08;27.58;60.17
69006;SHT31;56061;51.748;19.620;2022-08-21T15:40:36;27.46;60.24
69006;SHT31;56061;51.748;19.620;2022-08-21T15:43:27;27.29;60.59
69006;SHT31;56061;51.748;19.620;2022-08-21T15:45:58;27.15;61.07
69006;SHT31;56061;51.748;19.620;2022-08-21T15:48:26;26.99;61.28
69006;SHT31;56061;51.748;19.620;2022-08-21T15:50:53;26.82;61.69
69006;SHT31;56061;51.748;19.620;2022-08-21T15:53:19;26.62;61.79
69006;SHT31;56061;51.748;19.620;2022-08-21T15:55:46;26.46;62.04
69006;SHT31;56061;51.748;19.620;2022-08-21T15:58:14;26.31;62.54
69006;SHT31;56061;51.748;19.620;2022-08-21T16:00:43;26.18;63.41
69006;SHT31;56061;51.748;19.620;2022-08-21T16:03:14;26.01;64.35
69006;SHT31;56061;51.748;19.620;2022-08-21T16:05:45;25.81;65.17
69006;SHT31;56061;51.748;19.620;2022-08-21T16:08:14;25.60;65.76
69006;SHT31;56061;51.748;19.620;2022-08-21T16:10:41;25.38;66.29
69006;SHT31;56061;51.748;19.620;2022-08-21T16:13:16;25.16;67.27
69006;SHT31;56061;51.748;19.620;2022-08-21T16:15:53;24.96;67.77
69006;SHT31;56061;51.748;19.620;2022-08-21T16:18:21;24.81;68.14
69006;SHT31;56061;51.748;19.620;2022-08-21T16:20:49;24.68;68.08
69006;SHT31;56061;51.748;19.620;2022-08-21T16:23:16;24.60;68.20
69006;SHT31;56061;51.748;19.620;2022-08-21T16:25:42;24.56;68.59
69006;SHT31;56061;51.748;19.620;2022-08-21T16:28:10;24.52;69.17
69006;SHT31;56061;51.748;19.620;2022-08-21T16:30:42;24.48;69.95
69006;SHT31;56061;51.748;19.620;2022-08-21T16:33:17;24.42;70.74
69006;SHT31;56061;51.748;19.620;2022-08-21T16:35:52;24.34;71.52
69006;SHT31;56061;51.748;19.620;2022-08-21T16:38:19;24.25;72.97
69006;SHT31;56061;51.748;19.620;2022-08-21T16:40:46;24.12;74.46
69006;SHT31;56061;51.748;19.620;2022-08-21T16:43:13;24.01;75.42
69006;SHT31;56061;51.748;19.620;2022-08-21T16:45:41;23.92;76.24
69006;SHT31;56061;51.748;19.620;2022-08-21T16:48:09;23.82;77.03
69006;SHT31;56061;51.748;19.620;2022-08-21T16:50:36;23.70;77.76
69006;SHT31;56061;51.748;19.620;2022-08-21T16:53:03;23.52;78.39
69006;SHT31;56061;51.748;19.620;2022-08-21T16:55:33;23.33;78.94